Time;durP1;ratioP1;P1;durP2;ratioP2;P2;SDS_P1;SDS_P2;PMS_P1;PMS_P2;Temp;Humidity;BMP_temperature;BMP_pressure;BME280_temperature;BME280_humidity;BME280_pressure;Samples;Min_cycle;Max_cycle;Signal;HPM_P1;HPM_P2
2023/09/22 00:01:56;;;;;;;4.03;2.40;;;;;;;20.40;90.39;99257.59;5055362;28;20529;-66
2023/09/22 00:04:23;;;;;;;4.30;2.53;;;;;;;20.47;90.05;99259.53;5069893;22;20525;-74
2023/09/22 00:06:50;;;;;;;3.63;2.20;;;;;;;20.52;89.27;99255.59;5055487;28;20462;-74
2023/09/22 00:09:17;;;;;;;4.80;2.40;;;;;;;20.57;89.38;99257.94;5055470;28;20434;-74
2023/09/22 00:11:43;;;;;;;4.60;2.10;;;;;;;20.59;88.60;99263.84;5055498;28;21026;-73
2023/09/22 00:14:11;;;;;;;3.83;2.20;;;;;;;20.62;88.86;99261.03;5055406;28;20442;-74
2023/09/22 00:16:38;;;;;;;4.70;2.40;;;;;;;20.61;88.46;99248.47;5055628;28;20828;-73
2023/09/22 00:19:05;;;;;;;6.70;2.63;;;;;;;20.69;87.15;99262.97;5055665;28;20533;-74
2023/09/22 00:21:32;;;;;;;4.53;2.33;;;;;;;20.68;87.67;99266.94;5055288;28;20470;-74
2023/09/22 00:23:58;;;;;;;4.73;2.70;;;;;;;20.69;87.30;99271.25;5055524;28;20448;-74
2023/09/22 00:26:25;;;;;;;5.10;2.63;;;;;;;20.72;86.88;99273.19;5055101;28;20486;-74
2023/09/22 00:28:52;;;;;;;4.93;3.03;;;;;;;20.76;87.13;99281.41;5055161;28;20466;-74
2023/09/22 00:31:20;;;;;;;5.27;2.53;;;;;;;20.75;86.72;99288.09;5055107;28;20573;-74
2023/09/22 00:33:47;;;;;;;4.60;2.00;;;;;;;20.69;87.53;99284.22;5054912;28;20460;-74
2023/09/22 00:36:14;;;;;;;4.23;2.23;;;;;;;20.63;87.76;99290.16;5054941;28;20462;-74
2023/09/22 00:38:41;;;;;;;4.43;2.50;;;;;;;20.64;87.92;99286.22;5055007;28;20802;-74
2023/09/22 00:41:08;;;;;;;4.07;2.27;;;;;;;20.62;88.04;99285.03;5055143;28;20430;-74
2023/09/22 00:43:34;;;;;;;4.73;2.60;;;;;;;20.61;88.59;99284.25;5054860;28;20529;-74
2023/09/22 00:46:01;;;;;;;5.00;2.30;;;;;;;20.60;88.19;99293.69;5055074;28;20458;-74
2023/09/22 00:48:31;;;;;;;4.47;2.43;;;;;;;20.58;88.84;99279.53;5054466;28;21013;-74
2023/09/22 00:51:01;;;;;;;5.53;2.43;;;;;;;20.55;88.31;99280.34;5054897;28;20510;-74
2023/09/22 00:53:29;;;;;;;4.87;2.70;;;;;;;20.58;88.48;99287.00;5054705;28;20536;-74
2023/09/22 00:55:57;;;;;;;4.87;2.60;;;;;;;20.58;88.63;99276.00;5055153;28;20459;-72
2023/09/22 00:58:24;;;;;;;9.40;2.87;;;;;;;20.58;88.74;99287.00;5054531;28;20889;-69
2023/09/22 01:00:52;;;;;;;4.50;2.73;;;;;;;20.54;88.50;99302.75;5054462;28;20993;-72
2023/09/22 01:03:19;;;;;;;6.33;2.50;;;;;;;20.53;88.18;99295.69;5054012;28;20545;-73
2023/09/22 01:05:47;;;;;;;4.37;2.50;;;;;;;20.51;88.31;99287.06;5053969;28;20870;-73
2023/09/22 01:08:14;;;;;;;4.93;2.77;;;;;;;20.49;88.91;99286.66;5054053;28;20434;-73
2023/09/22 01:10:42;;;;;;;7.67;3.10;;;;;;;20.49;88.75;99278.41;5054255;28;20508;-73
2023/09/22 01:13:09;;;;;;;3.87;2.23;;;;;;;20.49;88.65;99289.41;5054292;28;20464;-73
2023/09/22 01:15:37;;;;;;;5.47;2.70;;;;;;;20.48;88.59;99296.09;5053850;28;20438;-73
2023/09/22 01:18:05;;;;;;;4.13;2.47;;;;;;;20.46;88.54;99290.19;5054213;28;20524;-73
2023/09/22 01:20:32;;;;;;;5.93;2.90;;;;;;;20.41;89.18;99294.16;5054132;28;20430;-73
2023/09/22 01:23:00;;;;;;;5.00;3.17;;;;;;;20.41;89.56;99294.94;5054199;28;20453;-73
2023/09/22 01:25:27;;;;;;;7.33;3.00;;;;;;;20.37;89.70;99301.63;5053682;28;20525;-74
2023/09/22 01:27:54;;;;;;;7.47;3.53;;;;;;;20.33;89.42;99304.38;5054072;28;20513;-74
2023/09/22 01:30:20;;;;;;;5.30;2.67;;;;;;;20.31;89.81;99295.72;5053945;28;20572;-73
2023/09/22 01:32:47;;;;;;;5.20;2.67;;;;;;;20.33;90.10;99298.88;5053947;28;20449;-73
2023/09/22 01:35:14;;;;;;;5.17;3.20;;;;;;;20.30;90.54;99293.38;5053654;28;20461;-73
2023/09/22 01:37:47;;;;;;;5.70;3.37;;;;;;;20.25;90.42;99305.59;5053764;28;20513;-73
2023/09/22 01:40:17;;;;;;;5.63;2.93;;;;;;;20.25;90.15;99318.56;5054037;28;20422;-73
2023/09/22 01:42:43;;;;;;;5.63;3.17;;;;;;;20.23;90.90;99323.66;5053450;28;20934;-73
2023/09/22 01:45:11;;;;;;;5.60;2.90;;;;;;;20.21;90.42;99324.06;5053792;28;20446;-73
2023/09/22 01:47:40;;;;;;;9.17;3.37;;;;;;;20.20;90.51;99325.25;5053338;28;20454;-73
2023/09/22 01:50:08;;;;;;;4.20;2.70;;;;;;;20.17;90.78;99328.78;5053622;28;20489;-73
2023/09/22 01:52:35;;;;;;;4.97;2.93;;;;;;;20.15;91.00;99334.69;5053622;28;20434;-74
2023/09/22 01:55:02;;;;;;;4.37;2.83;;;;;;;20.11;92.21;99338.63;5053281;28;20446;-73
2023/09/22 01:57:30;;;;;;;5.50;3.27;;;;;;;20.11;91.33;99338.63;5053474;28;20549;-73
2023/09/22 01:59:56;;;;;;;4.93;3.53;;;;;;;20.12;91.61;99345.69;5053581;28;20444;-73
2023/09/22 02:02:22;;;;;;;3.57;2.13;;;;;;;20.10;91.49;99337.06;5053170;28;20871;-73
2023/09/22 02:04:49;;;;;;;3.80;2.50;;;;;;;20.08;91.34;99336.66;5053414;28;20541;-73
2023/09/22 02:07:16;;;;;;;5.40;3.33;;;;;;;20.08;91.41;99339.41;5053711;28;20332;-73
2023/09/22 02:09:42;;;;;;;5.33;2.60;;;;;;;20.05;92.77;99338.22;5053679;28;20456;-73
2023/09/22 02:12:09;;;;;;;4.00;2.20;;;;;;;20.06;93.15;99345.31;5053231;28;20492;-73
2023/09/22 02:14:38;;;;;;;5.63;2.80;;;;;;;20.04;92.70;99346.88;5053241;28;20465;-74
2023/09/22 02:17:04;;;;;;;5.80;3.23;;;;;;;20.02;92.90;99344.53;5052841;28;20458;-74
2023/09/22 02:19:35;;;;;;;3.50;2.17;;;;;;;20.08;92.91;99350.41;5053147;28;20537;-74
2023/09/22 02:22:02;;;;;;;4.70;2.87;;;;;;;20.04;92.60;99338.63;5053207;28;20427;-74
2023/09/22 02:24:28;;;;;;;5.87;2.93;;;;;;;20.05;92.74;99348.44;5053453;28;20442;-74
2023/09/22 02:26:55;;;;;;;5.77;2.87;;;;;;;20.07;92.96;99338.63;5053128;28;20540;-74
2023/09/22 02:29:21;;;;;;;3.93;2.30;;;;;;;20.09;92.96;99349.22;5053336;28;20533;-75
2023/09/22 02:31:50;;;;;;;4.90;2.80;;;;;;;20.11;92.68;99355.13;5052956;28;20527;-75
2023/09/22 02:34:20;;;;;;;5.30;2.70;;;;;;;20.13;92.57;99352.75;5052997;28;20528;-75
2023/09/22 02:36:47;;;;;;;4.70;2.33;;;;;;;20.16;91.97;99354.72;5052971;28;20458;-75
2023/09/22 02:39:15;;;;;;;5.20;2.20;;;;;;;20.13;92.41;99359.03;5052953;28;20529;-75
2023/09/22 02:41:41;;;;;;;4.83;2.50;;;;;;;20.12;92.48;99368.47;5052921;28;20529;-73
2023/09/22 02:44:09;;;;;;;4.53;1.57;;;;;;;20.13;92.89;99372.00;5052896;28;20786;-73
2023/09/22 02:46:36;;;;;;;3.83;1.50;;;;;;;20.19;92.48;99377.88;5052982;28;20479;-73
2023/09/22 02:49:05;;;;;;;3.33;1.40;;;;;;;20.18;92.55;99379.84;5053110;28;20448;-74
2023/09/22 02:51:31;;;;;;;3.67;1.37;;;;;;;20.11;92.83;99396.38;5053092;28;20525;-74
2023/09/22 02:53:58;;;;;;;3.80;1.33;;;;;;;20.12;93.14;99392.44;5053006;28;20836;-75
2023/09/22 02:56:25;;;;;;;3.13;1.27;;;;;;;20.11;93.51;99401.88;5052772;28;20493;-76
2023/09/22 02:58:51;;;;;;;2.80;1.07;;;;;;;20.13;92.73;99399.50;5052618;28;20446;-75
2023/09/22 03:01:18;;;;;;;2.80;1.10;;;;;;;20.12;93.02;99408.94;5052496;28;20443;-76
2023/09/22 03:03:44;;;;;;;2.70;1.20;;;;;;;20.07;94.01;99412.84;5052321;28;20932;-75
2023/09/22 03:06:13;;;;;;;2.40;0.70;;;;;;;20.05;94.45;99422.66;5052653;28;20454;-75
2023/09/22 03:08:40;;;;;;;2.90;0.83;;;;;;;19.99;94.91;99425.03;5053060;28;20519;-76
2023/09/22 03:11:07;;;;;;;4.07;1.60;;;;;;;19.97;95.35;99429.38;5052225;28;21025;-77
2023/09/22 03:13:33;;;;;;;2.90;1.10;;;;;;;19.85;96.44;99444.28;5052699;28;20529;-78
2023/09/22 03:16:01;;;;;;;3.03;0.80;;;;;;;19.78;97.22;99445.03;5052345;28;20982;-76
2023/09/22 03:18:28;;;;;;;2.53;0.67;;;;;;;19.57;99.77;99434.00;5052863;28;20528;-76
2023/09/22 03:20:54;;;;;;;2.10;0.50;;;;;;;19.35;100.00;99444.94;5053600;28;20529;-75
2023/09/22 03:23:23;;;;;;;3.13;0.83;;;;;;;19.18;100.00;99450.38;5053460;28;20480;-76
2023/09/22 03:25:50;;;;;;;2.40;0.80;;;;;;;18.99;100.00;99452.28;5052771;28;20610;-75
2023/09/22 03:28:17;;;;;;;2.60;0.50;;;;;;;18.85;100.00;99450.22;5053916;28;20930;-71
2023/09/22 03:30:43;;;;;;;2.83;0.47;;;;;;;18.68;100.00;99464.59;5056028;28;21083;-74
2023/09/22 03:33:10;;;;;;;3.07;0.40;;;;;;;18.55;100.00;99471.56;5056399;28;20529;-75
2023/09/22 03:35:38;;;;;;;2.13;0.50;;;;;;;18.43;100.00;99460.94;5055664;28;20439;-76
2023/09/22 03:38:08;;;;;;;3.20;0.70;;;;;;;18.31;100.00;99464.75;5055675;28;20441;-75
2023/09/22 03:40:41;;;;;;;2.50;0.60;;;;;;;18.14;100.00;99466.19;5056056;28;20423;-75
2023/09/22 03:43:08;;;;;;;2.40;0.70;;;;;;;18.04;100.00;99480.59;5055817;28;20786;-75
2023/09/22 03:45:35;;;;;;;2.07;0.40;;;;;;;17.99;100.00;99480.97;5056226;28;20446;-75
2023/09/22 03:48:04;;;;;;;2.70;0.70;;;;;;;17.88;100.00;99484.41;5055845;28;20442;-74
2023/09/22 03:50:30;;;;;;;2.80;0.60;;;;;;;17.88;100.00;99492.63;5055374;28;20538;-75
2023/09/22 03:52:57;;;;;;;2.53;0.60;;;;;;;17.86;100.00;99494.94;5056090;28;20469;-74
2023/09/22 03:55:24;;;;;;;2.63;0.63;;;;;;;17.81;100.00;99494.50;5056209;28;20445;-74
2023/09/22 03:57:52;;;;;;;2.73;0.70;;;;;;;17.82;100.00;99499.59;5055553;28;20498;-74
2023/09/22 04:00:24;;;;;;;3.73;0.83;;;;;;;17.82;100.00;99493.31;5055716;28;20442;-75
2023/09/22 04:02:52;;;;;;;2.50;0.80;;;;;;;17.83;100.00;99505.84;5055364;28;20527;-74
2023/09/22 04:05:19;;;;;;;2.40;0.87;;;;;;;17.82;100.00;99507.00;5055800;28;20427;-74
2023/09/22 04:07:46;;;;;;;2.20;0.60;;;;;;;17.81;100.00;99508.19;5055476;28;20466;-74
2023/09/22 04:10:13;;;;;;;2.20;0.60;;;;;;;17.77;100.00;99502.66;5055476;28;20444;-75
2023/09/22 04:12:39;;;;;;;2.30;0.70;;;;;;;17.76;100.00;99503.84;5055227;28;20581;-75
2023/09/22 04:15:09;;;;;;;2.60;0.80;;;;;;;17.71;100.00;99500.59;5055218;28;20959;-74
2023/09/22 04:17:38;;;;;;;2.17;0.73;;;;;;;17.66;100.00;99501.72;5055427;28;20542;-75
2023/09/22 04:20:07;;;;;;;2.20;0.50;;;;;;;17.68;100.00;99496.69;5055435;28;20446;-74
2023/09/22 04:22:34;;;;;;;2.20;0.60;;;;;;;17.69;100.00;99495.50;5055079;28;20447;-74
2023/09/22 04:25:02;;;;;;;2.37;0.63;;;;;;;17.68;100.00;99498.63;5055094;28;20442;-74
2023/09/22 04:27:32;;;;;;;2.40;0.80;;;;;;;17.70;100.00;99491.59;5055387;28;20798;-74
2023/09/22 04:30:00;;;;;;;2.50;1.00;;;;;;;17.71;100.00;99479.50;5054653;28;20815;-75
2023/09/22 04:32:33;;;;;;;2.70;0.90;;;;;;;17.65;100.00;99473.56;5054600;28;20847;-75
2023/09/22 04:35:00;;;;;;;2.40;0.63;;;;;;;17.63;100.00;99467.69;5054863;28;20434;-74
2023/09/22 04:37:27;;;;;;;3.10;0.80;;;;;;;17.62;100.00;99451.63;5054575;28;20556;-74
2023/09/22 04:39:54;;;;;;;2.90;0.90;;;;;;;17.61;100.00;99445.34;5054164;28;20519;-74
2023/09/22 04:42:22;;;;;;;13.67;4.53;;;;;;;17.55;100.00;99438.63;5054294;28;20867;-75
2023/09/22 04:44:50;;;;;;;3.03;1.17;;;;;;;17.52;100.00;99455.81;5054438;28;20461;-75
2023/09/22 04:47:17;;;;;;;3.27;0.90;;;;;;;17.50;100.00;99482.78;5054863;28;20458;-74
2023/09/22 04:49:45;;;;;;;2.60;0.77;;;;;;;17.47;100.00;99505.44;5054344;28;20439;-74
2023/09/22 04:52:12;;;;;;;2.30;0.70;;;;;;;17.45;100.00;99496.03;5054320;28;20517;-74
2023/09/22 04:54:40;;;;;;;2.20;0.70;;;;;;;17.42;100.00;99505.78;5054568;28;20446;-74
2023/09/22 04:57:06;;;;;;;2.07;0.60;;;;;;;17.44;100.00;99505.38;5054310;28;21050;-74
2023/09/22 04:59:33;;;;;;;2.23;0.60;;;;;;;17.42;100.00;99507.72;5054650;28;20426;-74
2023/09/22 05:02:00;;;;;;;2.50;0.90;;;;;;;17.42;100.00;99491.31;5054258;28;20560;-74
2023/09/22 05:04:28;;;;;;;2.90;0.90;;;;;;;17.45;100.00;99487.81;5054021;28;20499;-74
2023/09/22 05:06:57;;;;;;;2.33;0.63;;;;;;;17.44;100.00;99488.97;5054117;28;20512;-74
2023/09/22 05:09:24;;;;;;;2.30;0.67;;;;;;;17.45;100.00;99480.41;5054138;28;20820;-74
2023/09/22 05:11:51;;;;;;;2.47;0.90;;;;;;;17.44;100.00;99467.06;5054621;28;20485;-74
2023/09/22 05:14:18;;;;;;;2.00;0.53;;;;;;;17.49;100.00;99464.00;5054230;28;20526;-74
2023/09/22 05:16:45;;;;;;;2.77;1.00;;;;;;;17.44;100.00;99478.78;5054045;28;20498;-74
2023/09/22 05:19:11;;;;;;;2.13;0.70;;;;;;;17.44;100.00;99486.22;5053974;28;20478;-74
2023/09/22 05:21:39;;;;;;;2.30;0.60;;;;;;;17.38;100.00;99516.69;5054083;28;20850;-74
2023/09/22 05:24:08;;;;;;;2.73;0.80;;;;;;;17.35;100.00;99547.56;5054045;28;20442;-73
2023/09/22 05:26:35;;;;;;;3.00;0.90;;;;;;;17.32;100.00;99540.06;5054462;28;20458;-74
2023/09/22 05:29:03;;;;;;;2.40;0.80;;;;;;;17.31;100.00;99554.13;5054295;28;20450;-74
2023/09/22 05:31:29;;;;;;;3.20;0.77;;;;;;;17.29;100.00;99559.97;5054305;28;20484;-75
2023/09/22 05:33:56;;;;;;;2.60;0.77;;;;;;;17.34;100.00;99561.59;5054658;28;20446;-77
2023/09/22 05:36:23;;;;;;;2.33;0.60;;;;;;;17.37;100.00;99556.16;5054452;28;20473;-75
2023/09/22 05:38:49;;;;;;;2.50;0.73;;;;;;;17.37;100.00;99547.97;5053974;28;20914;-75
2023/09/22 05:41:17;;;;;;;2.73;0.60;;;;;;;17.43;100.00;99553.88;5053964;28;20434;-75
2023/09/22 05:43:44;;;;;;;2.30;0.60;;;;;;;17.43;100.00;99556.63;5053794;28;20930;-75
2023/09/22 05:46:11;;;;;;;3.30;1.20;;;;;;;17.49;100.00;99562.56;5054082;28;20483;-75
2023/09/22 05:48:38;;;;;;;3.30;0.87;;;;;;;17.49;100.00;99563.38;5053905;28;20445;-75
2023/09/22 05:51:05;;;;;;;2.20;0.50;;;;;;;17.49;100.00;99574.31;5053107;28;20529;-75
2023/09/22 05:53:32;;;;;;;2.30;0.50;;;;;;;17.48;100.00;99594.63;5053821;28;20533;-75
2023/09/22 05:56:06;;;;;;;2.67;0.80;;;;;;;17.48;100.00;99593.84;5053702;28;20548;-75
2023/09/22 05:58:34;;;;;;;2.80;0.63;;;;;;;17.48;100.00;99591.88;5053651;28;20476;-75
2023/09/22 06:01:07;;;;;;;2.30;0.60;;;;;;;17.46;100.00;99590.69;5053622;28;20434;-75
2023/09/22 06:03:34;;;;;;;2.40;0.60;;;;;;;17.45;100.00;99600.88;5075867;22;20488;-73
2023/09/22 06:06:05;;;;;;;2.63;0.63;;;;;;;17.45;100.00;99611.03;5079556;28;20463;-72
2023/09/22 06:08:32;;;;;;;2.43;0.67;;;;;;;17.40;100.00;99629.34;5077515;28;20533;-75
2023/09/22 06:10:59;;;;;;;3.17;0.83;;;;;;;17.38;100.00;99619.91;5073810;28;20503;-76
2023/09/22 06:13:25;;;;;;;2.20;0.50;;;;;;;17.35;100.00;99615.19;5073911;28;20471;-77
2023/09/22 06:15:53;;;;;;;3.13;0.70;;;;;;;17.38;100.00;99619.91;5074590;28;20539;-76
2023/09/22 06:18:20;;;;;;;2.90;0.57;;;;;;;17.42;100.00;99614.50;5073719;28;20437;-76
2023/09/22 06:20:47;;;;;;;4.73;0.73;;;;;;;17.43;100.00;99633.28;5073797;28;20842;-77
2023/09/22 06:23:14;;;;;;;2.50;0.70;;;;;;;17.47;100.00;99647.81;5073884;28;20526;-77
2023/09/22 06:25:40;;;;;;;3.00;0.97;;;;;;;17.50;100.00;99643.56;5073293;28;20520;-77
2023/09/22 06:28:07;;;;;;;2.80;0.77;;;;;;;17.52;100.00;99643.97;5073277;28;20947;-75
2023/09/22 06:30:34;;;;;;;2.40;0.60;;;;;;;17.56;100.00;99626.41;5073172;28;20461;-75
2023/09/22 06:33:04;;;;;;;4.43;1.03;;;;;;;17.61;100.00;99644.47;5073478;28;20477;-74
2023/09/22 06:35:31;;;;;;;2.60;0.80;;;;;;;17.69;100.00;99646.16;5074013;28;20495;-75
2023/09/22 06:37:57;;;;;;;2.53;0.73;;;;;;;17.69;100.00;99657.09;5073266;28;20445;-75
2023/09/22 06:40:24;;;;;;;2.93;1.07;;;;;;;17.65;100.00;99651.56;5073594;28;20487;-75
2023/09/22 06:42:51;;;;;;;2.53;0.70;;;;;;;17.78;100.00;99656.84;5073594;28;21000;-74
2023/09/22 06:45:18;;;;;;;2.40;0.57;;;;;;;17.93;100.00;99674.25;5073377;28;20524;-74
2023/09/22 06:47:45;;;;;;;2.47;0.60;;;;;;;18.04;100.00;99675.19;5073347;28;20461;-74
2023/09/22 06:50:13;;;;;;;2.60;0.70;;;;;;;18.18;100.00;99669.84;5082230;28;20509;-73
2023/09/22 06:52:40;;;;;;;3.07;0.87;;;;;;;18.23;100.00;99661.28;5088657;28;20481;-74
2023/09/22 06:55:11;;;;;;;2.83;0.70;;;;;;;18.28;100.00;99660.16;5088158;28;20483;-74
2023/09/22 06:57:40;;;;;;;2.87;0.70;;;;;;;18.31;100.00;99667.66;5073516;28;20453;-73
2023/09/22 07:00:15;;;;;;;3.00;0.93;;;;;;;18.27;100.00;99667.59;5073172;28;20936;-71
2023/09/22 07:02:42;;;;;;;2.93;0.80;;;;;;;18.25;100.00;99680.91;5075400;28;20788;-72
2023/09/22 07:05:10;;;;;;;2.80;0.67;;;;;;;18.26;100.00;99693.44;5076578;28;20422;-72
2023/09/22 07:07:38;;;;;;;2.40;0.90;;;;;;;18.29;100.00;99697.41;5077189;28;20543;-72
2023/09/22 07:10:07;;;;;;;3.00;1.10;;;;;;;18.33;100.00;99699.03;5076744;28;20433;-72
2023/09/22 07:12:34;;;;;;;2.60;0.83;;;;;;;18.31;100.00;99693.09;5076714;28;20504;-73
2023/09/22 07:15:00;;;;;;;2.90;1.10;;;;;;;18.28;100.00;99707.59;5076683;28;20449;-73
2023/09/22 07:17:27;;;;;;;2.80;0.90;;;;;;;18.27;100.00;99707.94;5076664;28;20908;-72
2023/09/22 07:19:53;;;;;;;3.60;1.00;;;;;;;18.16;100.00;99707.81;5076728;28;20524;-71
2023/09/22 07:22:20;;;;;;;2.60;0.90;;;;;;;18.07;100.00;99712.81;5076227;28;20955;-71
2023/09/22 07:24:48;;;;;;;2.63;0.93;;;;;;;18.06;100.00;99724.91;5076782;28;20536;-72
2023/09/22 07:27:15;;;;;;;2.73;0.77;;;;;;;18.02;100.00;99719.41;5076990;28;20544;-72
2023/09/22 07:29:42;;;;;;;3.20;0.90;;;;;;;18.02;100.00;99718.63;5076723;28;20520;-71
2023/09/22 07:32:09;;;;;;;2.20;0.73;;;;;;;18.03;100.00;99718.25;5076561;28;20477;-72
2023/09/22 07:34:36;;;;;;;2.50;0.60;;;;;;;17.92;100.00;99727.47;5076387;28;20443;-73
2023/09/22 07:37:03;;;;;;;2.80;0.70;;;;;;;17.93;100.00;99731.78;5076157;28;20465;-72
2023/09/22 07:39:29;;;;;;;3.90;0.70;;;;;;;17.92;100.00;99733.75;5075846;28;20448;-72
2023/09/22 07:41:57;;;;;;;6.30;0.97;;;;;;;17.98;100.00;99745.19;5076101;28;20529;-72
2023/09/22 07:44:26;;;;;;;261.50;60.07;;;;;;;17.97;100.00;99746.31;5075746;28;20477;-72
2023/09/22 07:46:56;;;;;;;78.00;31.83;;;;;;;17.96;100.00;99755.72;5076352;28;20461;-72
2023/09/22 07:49:23;;;;;;;3.57;0.70;;;;;;;17.99;100.00;99741.28;5075842;28;20429;-72
2023/09/22 07:51:50;;;;;;;2.40;0.60;;;;;;;18.04;100.00;99741.75;5075740;28;20928;-72
2023/09/22 07:54:18;;;;;;;2.27;0.57;;;;;;;18.08;100.00;99739.06;5075969;28;20502;-72
2023/09/22 07:56:46;;;;;;;3.17;1.00;;;;;;;18.10;100.00;99759.44;5075645;28;21070;-73
2023/09/22 07:59:14;;;;;;;5.30;0.70;;;;;;;18.08;100.00;99764.50;5079197;28;20477;-71
2023/09/22 08:01:42;;;;;;;3.93;0.70;;;;;;;18.14;100.00;99767.69;5078680;28;20431;-72
2023/09/22 08:04:09;;;;;;;3.70;0.50;;;;;;;18.21;100.00;99773.28;5075541;28;20449;-72
2023/09/22 08:06:36;;;;;;;3.70;0.70;;;;;;;18.23;100.00;99790.13;5075605;28;20496;-72
2023/09/22 08:09:03;;;;;;;3.87;0.70;;;;;;;18.23;100.00;99792.88;5075691;28;20437;-71
2023/09/22 08:11:30;;;;;;;2.63;0.80;;;;;;;18.22;100.00;99802.28;5075607;28;20796;-72
2023/09/22 08:13:58;;;;;;;2.30;0.60;;;;;;;18.20;100.00;99798.34;5074397;28;20496;-72
2023/09/22 08:16:26;;;;;;;3.23;0.77;;;;;;;18.23;100.00;99790.13;5075438;28;20484;-72
2023/09/22 08:18:54;;;;;;;2.13;0.60;;;;;;;18.26;100.00;99775.69;5075079;28;20883;-71
2023/09/22 08:21:21;;;;;;;2.60;0.60;;;;;;;18.28;100.00;99778.06;5075081;28;20503;-73
2023/09/22 08:23:48;;;;;;;2.77;0.80;;;;;;;18.30;100.00;99790.25;5075537;28;20503;-73
2023/09/22 08:26:17;;;;;;;3.20;1.00;;;;;;;18.36;100.00;99791.47;5075278;28;20480;-73
2023/09/22 08:28:44;;;;;;;2.27;0.73;;;;;;;18.43;100.00;99790.78;5075874;28;20527;-73
2023/09/22 08:31:11;;;;;;;2.90;1.00;;;;;;;18.48;100.00;99793.19;5075739;28;20452;-73
2023/09/22 08:33:40;;;;;;;3.33;0.83;;;;;;;18.49;100.00;99800.25;5075931;28;20560;-73
2023/09/22 08:36:08;;;;;;;2.40;0.90;;;;;;;18.46;100.00;99806.50;5075181;28;20496;-73
2023/09/22 08:38:35;;;;;;;2.40;0.80;;;;;;;18.49;100.00;99805.75;5075644;28;20450;-73
2023/09/22 08:41:03;;;;;;;2.77;0.73;;;;;;;18.54;100.00;99799.13;5074988;28;20487;-72
2023/09/22 08:43:32;;;;;;;2.40;0.80;;;;;;;18.55;100.00;99815.25;5075411;28;20524;-72
2023/09/22 08:45:59;;;;;;;4.00;1.10;;;;;;;18.57;100.00;99818.38;5075325;28;20511;-73
2023/09/22 08:48:26;;;;;;;4.53;1.43;;;;;;;18.57;100.00;99820.34;5074988;28;20491;-73
2023/09/22 08:50:54;;;;;;;2.93;0.90;;;;;;;18.55;100.00;99825.41;5075094;28;20441;-72
2023/09/22 08:53:21;;;;;;;2.40;0.73;;;;;;;18.50;100.00;99812.00;5074773;28;20485;-73
2023/09/22 08:55:49;;;;;;;2.30;0.83;;;;;;;18.46;100.00;99814.75;5074693;28;20465;-73
2023/09/22 08:58:17;;;;;;;3.77;1.00;;;;;;;18.40;100.00;99827.97;5075291;28;20469;-72
2023/09/22 09:00:48;;;;;;;3.00;1.03;;;;;;;18.45;100.00;99831.53;5075021;28;20441;-71
2023/09/22 09:03:17;;;;;;;2.83;0.90;;;;;;;18.47;100.00;99816.31;5074463;28;20548;-72
2023/09/22 09:05:44;;;;;;;2.93;1.00;;;;;;;18.40;100.00;99830.72;5074483;28;20446;-72
2023/09/22 09:08:14;;;;;;;3.07;0.70;;;;;;;18.37;100.00;99836.97;5074811;28;20495;-72
2023/09/22 09:10:42;;;;;;;2.73;0.80;;;;;;;18.35;100.00;99843.97;5074407;28;20473;-71
2023/09/22 09:13:13;;;;;;;3.20;0.73;;;;;;;18.34;100.00;99853.34;5074262;28;20481;-71
2023/09/22 09:15:45;;;;;;;2.80;0.70;;;;;;;18.22;100.00;99856.31;5074416;28;20969;-71
2023/09/22 09:18:15;;;;;;;2.77;0.93;;;;;;;18.18;100.00;99856.25;5074220;28;20499;-71
2023/09/22 09:20:42;;;;;;;2.60;0.60;;;;;;;18.23;100.00;99864.16;5074755;28;20434;-71
2023/09/22 09:23:15;;;;;;;3.27;0.80;;;;;;;18.33;100.00;99865.50;5074265;28;20461;-71
2023/09/22 09:25:43;;;;;;;2.53;0.53;;;;;;;18.33;100.00;99873.72;5073731;28;20516;-71
2023/09/22 09:28:11;;;;;;;2.60;0.70;;;;;;;18.34;100.00;99881.56;5074092;28;20440;-71
2023/09/22 09:30:38;;;;;;;3.00;0.80;;;;;;;18.37;100.00;99872.59;5074044;28;20446;-71
2023/09/22 09:33:09;;;;;;;2.63;0.70;;;;;;;18.37;100.00;99883.56;5074063;28;20488;-71
2023/09/22 09:35:37;;;;;;;2.50;0.60;;;;;;;18.46;100.00;99880.56;5074015;28;20426;-71
2023/09/22 09:38:04;;;;;;;2.40;0.60;;;;;;;18.50;100.00;99883.31;5073993;28;20445;-71
2023/09/22 09:40:36;;;;;;;2.37;0.50;;;;;;;18.53;100.00;99885.31;5074147;28;20445;-71
2023/09/22 09:43:07;;;;;;;2.63;0.60;;;;;;;18.57;100.00;99894.41;5074293;28;20457;-71
2023/09/22 09:45:35;;;;;;;2.70;0.53;;;;;;;18.53;100.00;99890.81;5074194;28;20422;-71
2023/09/22 09:48:04;;;;;;;2.40;0.50;;;;;;;18.47;100.00;99903.28;5074417;28;20479;-71
2023/09/22 09:50:35;;;;;;;3.27;0.87;;;;;;;18.45;100.00;99900.09;5074090;28;20880;-71
2023/09/22 09:53:11;;;;;;;2.50;0.60;;;;;;;18.48;100.00;99886.44;5073870;28;20550;-71
2023/09/22 09:55:42;;;;;;;2.40;0.50;;;;;;;18.50;100.00;99894.28;5073374;28;20893;-71
2023/09/22 09:58:12;;;;;;;2.60;0.67;;;;;;;18.49;100.00;99887.22;5073715;28;20487;-71
2023/09/22 10:00:42;;;;;;;2.80;0.53;;;;;;;18.50;100.00;99886.84;5073674;28;20486;-72
2023/09/22 10:03:09;;;;;;;3.00;0.53;;;;;;;18.58;100.00;99896.75;5073609;28;20484;-71
2023/09/22 10:05:38;;;;;;;2.80;0.70;;;;;;;18.63;100.00;99899.19;5074031;28;20533;-72
2023/09/22 10:08:06;;;;;;;3.10;0.80;;;;;;;18.70;100.00;99892.25;5074014;28;20526;-71
2023/09/22 10:10:38;;;;;;;3.10;0.90;;;;;;;18.76;100.00;99896.22;5073592;28;20443;-72
2023/09/22 10:13:07;;;;;;;3.37;1.07;;;;;;;18.76;100.00;99897.00;5073830;28;20461;-71
2023/09/22 10:15:57;;;;;;;2.93;0.70;;;;;;;18.65;100.00;99894.13;5073441;28;20491;-71
2023/09/22 10:18:45;;;;;;;2.47;0.60;;;;;;;18.62;100.00;99896.81;5073540;28;20437;-72
2023/09/22 10:21:33;;;;;;;2.70;0.60;;;;;;;18.63;100.00;99899.19;5073587;28;20428;-71
2023/09/22 10:24:32;;;;;;;3.43;0.50;;;;;;;18.63;100.00;99899.19;5073897;28;20453;-72
2023/09/22 10:27:17;;;;;;;2.43;0.50;;;;;;;18.69;100.00;99885.97;5011430;28;20468;-72
2023/09/22 10:29:52;;;;;;;3.20;0.90;;;;;;;18.70;100.00;99884.81;5068544;28;20456;-71
2023/09/22 10:32:24;;;;;;;2.60;0.60;;;;;;;18.76;100.00;99894.28;5073142;28;20421;-71
2023/09/22 10:34:53;;;;;;;2.60;0.53;;;;;;;18.77;100.00;99886.81;5073087;28;20924;-71
2023/09/22 10:37:20;;;;;;;2.70;0.50;;;;;;;18.83;100.00;99891.63;5075222;28;20461;-71
2023/09/22 10:39:52;;;;;;;2.83;0.70;;;;;;;18.88;100.00;99888.53;5077486;28;20474;-71
2023/09/22 10:42:20;;;;;;;2.70;0.60;;;;;;;18.89;100.00;99873.66;5077406;28;20449;-71
2023/09/22 10:45:01;;;;;;;2.73;0.50;;;;;;;18.88;100.00;99882.28;5077974;28;20498;-71
2023/09/22 10:47:41;;;;;;;3.90;0.60;;;;;;;18.83;100.00;99885.34;5077204;28;20518;-71
2023/09/22 10:50:17;;;;;;;2.70;0.60;;;;;;;18.77;100.00;99900.56;5077607;28;20471;-72
2023/09/22 10:52:52;;;;;;;2.50;0.50;;;;;;;18.69;100.00;99899.69;5077346;28;20444;-71
2023/09/22 10:55:26;;;;;;;2.60;0.90;;;;;;;18.76;100.00;99898.97;5076770;28;20455;-71
2023/09/22 10:57:53;;;;;;;2.37;0.50;;;;;;;18.74;100.00;99902.09;5077395;28;20445;-70
2023/09/22 11:00:21;;;;;;;2.50;0.60;;;;;;;18.71;100.00;99899.31;5077461;28;20536;-71
2023/09/22 11:02:49;;;;;;;2.40;0.50;;;;;;;18.76;100.00;99885.25;5076740;28;20475;-69
2023/09/22 11:05:16;;;;;;;2.13;0.50;;;;;;;18.76;100.00;99877.81;5076796;28;20429;-74
2023/09/22 11:07:44;;;;;;;2.10;0.40;;;;;;;18.83;100.00;99880.66;5077219;28;20516;-70
2023/09/22 11:10:18;;;;;;;1.97;0.53;;;;;;;18.93;100.00;99878.41;5076885;28;20437;-68
2023/09/22 11:12:48;;;;;;;1.90;0.40;;;;;;;18.97;100.00;99876.50;5076980;28;20417;-69
2023/09/22 11:15:15;;;;;;;2.37;0.60;;;;;;;19.05;100.00;99867.97;5077447;28;20421;-71
2023/09/22 11:17:46;;;;;;;2.30;0.60;;;;;;;19.07;100.00;99864.81;5076167;28;20514;-69
2023/09/22 11:20:22;;;;;;;2.57;0.70;;;;;;;19.05;100.00;99861.69;5076681;28;20863;-71
2023/09/22 11:22:50;;;;;;;2.40;0.80;;;;;;;19.09;100.00;99868.78;5076622;28;20953;-71
2023/09/22 11:25:16;;;;;;;2.40;0.60;;;;;;;19.07;98.54;99868.34;5076553;28;20523;-71
2023/09/22 11:27:45;;;;;;;2.30;0.60;;;;;;;19.11;99.94;99873.91;5077063;28;20467;-71
2023/09/22 11:30:14;;;;;;;2.30;0.60;;;;;;;18.98;96.85;99876.09;5080352;28;20459;-71
2023/09/22 11:32:43;;;;;;;2.10;0.50;;;;;;;19.01;97.31;99880.84;5076360;28;20477;-71